Citronelle, Alabama
Current Conditions -  °F | °C
As of 7:56 AM on Wednesday 28 Jan 2015 (Local Time) from KMOB Reporting Station
Clear Clear  
Wind Chill: 38°   Ceiling: Unl
Heat Index: 43°   Visibility: 10mi
Dew Point: 34°   Wind: 8mph
Humidity: 71%   Direction: 40°NE
Pressure: 30.29"   Gusts: NA
Location:  31.09°N, 88.23°W
Report Text: KMOB 281356Z 04007KT 10SM CLR 06/01 A3029 RMK AO2 SLP257 T00610011
Loading
Personal Weather Stations






























Interactive Weather Map New forecast layout! Learn more

10-Day Weather Forecast

Advertisements
Track Severe Weather on mobile